sensor_id;sensor_type;location;lat;lon;timestamp;P1;durP1;ratioP1;P2;durP2;ratioP2
32637;SDS011;19045;52.268;10.506;2022-11-15T00:01:06;23.27;;;14.88;;
32637;SDS011;19045;52.268;10.506;2022-11-15T00:03:33;24.95;;;14.68;;
32637;SDS011;19045;52.268;10.506;2022-11-15T00:06:02;18.98;;;14.25;;
32637;SDS011;19045;52.268;10.506;2022-11-15T00:08:30;20.20;;;14.68;;
32637;SDS011;19045;52.268;10.506;2022-11-15T00:10:57;20.08;;;14.02;;
32637;SDS011;19045;52.268;10.506;2022-11-15T00:13:24;23.27;;;13.95;;
32637;SDS011;19045;52.268;10.506;2022-11-15T00:15:51;23.05;;;14.43;;
32637;SDS011;19045;52.268;10.506;2022-11-15T00:18:18;22.13;;;13.88;;
32637;SDS011;19045;52.268;10.506;2022-11-15T00:20:45;22.65;;;15.50;;
32637;SDS011;19045;52.268;10.506;2022-11-15T00:23:13;22.80;;;15.13;;
32637;SDS011;19045;52.268;10.506;2022-11-15T00:25:39;20.83;;;14.73;;
32637;SDS011;19045;52.268;10.506;2022-11-15T00:28:06;23.63;;;15.05;;
32637;SDS011;19045;52.268;10.506;2022-11-15T00:30:33;22.50;;;14.73;;
32637;SDS011;19045;52.268;10.506;2022-11-15T00:33:01;21.75;;;14.50;;
32637;SDS011;19045;52.268;10.506;2022-11-15T00:35:30;27.23;;;15.35;;
32637;SDS011;19045;52.268;10.506;2022-11-15T00:37:57;21.73;;;13.93;;
32637;SDS011;19045;52.268;10.506;2022-11-15T00:40:25;24.00;;;15.60;;
32637;SDS011;19045;52.268;10.506;2022-11-15T00:42:52;22.67;;;15.80;;
32637;SDS011;19045;52.268;10.506;2022-11-15T00:45:19;21.88;;;14.60;;
32637;SDS011;19045;52.268;10.506;2022-11-15T00:47:45;19.25;;;13.98;;
32637;SDS011;19045;52.268;10.506;2022-11-15T00:50:12;23.20;;;14.18;;
32637;SDS011;19045;52.268;10.506;2022-11-15T00:52:39;17.52;;;13.07;;
32637;SDS011;19045;52.268;10.506;2022-11-15T00:55:06;21.77;;;13.95;;
32637;SDS011;19045;52.268;10.506;2022-11-15T00:57:35;21.08;;;13.02;;
32637;SDS011;19045;52.268;10.506;2022-11-15T01:00:02;20.80;;;14.35;;
32637;SDS011;19045;52.268;10.506;2022-11-15T01:02:30;21.15;;;14.13;;
32637;SDS011;19045;52.268;10.506;2022-11-15T01:04:56;23.15;;;14.95;;
32637;SDS011;19045;52.268;10.506;2022-11-15T01:07:23;22.63;;;13.95;;
32637;SDS011;19045;52.268;10.506;2022-11-15T01:09:49;21.95;;;14.40;;
32637;SDS011;19045;52.268;10.506;2022-11-15T01:12:16;19.98;;;14.20;;
32637;SDS011;19045;52.268;10.506;2022-11-15T01:14:44;21.63;;;14.88;;
32637;SDS011;19045;52.268;10.506;2022-11-15T01:17:10;20.40;;;14.55;;
32637;SDS011;19045;52.268;10.506;2022-11-15T01:19:37;23.20;;;15.73;;
32637;SDS011;19045;52.268;10.506;2022-11-15T01:22:04;24.85;;;15.20;;
32637;SDS011;19045;52.268;10.506;2022-11-15T01:24:30;21.63;;;14.65;;
32637;SDS011;19045;52.268;10.506;2022-11-15T01:26:57;25.50;;;16.30;;
32637;SDS011;19045;52.268;10.506;2022-11-15T01:29:24;22.00;;;14.73;;
32637;SDS011;19045;52.268;10.506;2022-11-15T01:31:52;22.90;;;15.25;;
32637;SDS011;19045;52.268;10.506;2022-11-15T01:34:18;23.45;;;15.05;;
32637;SDS011;19045;52.268;10.506;2022-11-15T01:36:45;21.95;;;14.05;;
32637;SDS011;19045;52.268;10.506;2022-11-15T01:39:12;19.73;;;13.45;;
32637;SDS011;19045;52.268;10.506;2022-11-15T01:41:38;22.13;;;14.88;;
32637;SDS011;19045;52.268;10.506;2022-11-15T01:47:10;21.73;;;14.30;;
32637;SDS011;19045;52.268;10.506;2022-11-15T01:49:40;24.25;;;14.90;;
32637;SDS011;19045;52.268;10.506;2022-11-15T01:52:13;18.92;;;13.27;;
32637;SDS011;19045;52.268;10.506;2022-11-15T01:54:43;20.58;;;14.18;;
32637;SDS011;19045;52.268;10.506;2022-11-15T01:57:10;25.27;;;14.30;;
32637;SDS011;19045;52.268;10.506;2022-11-15T01:59:39;21.60;;;14.57;;
32637;SDS011;19045;52.268;10.506;2022-11-15T02:02:09;23.17;;;14.65;;
32637;SDS011;19045;52.268;10.506;2022-11-15T02:04:38;18.50;;;13.27;;
32637;SDS011;19045;52.268;10.506;2022-11-15T02:07:07;22.45;;;14.02;;
32637;SDS011;19045;52.268;10.506;2022-11-15T02:09:35;23.02;;;14.70;;
32637;SDS011;19045;52.268;10.506;2022-11-15T02:12:03;20.92;;;14.52;;
32637;SDS011;19045;52.268;10.506;2022-11-15T02:14:31;25.05;;;13.93;;
32637;SDS011;19045;52.268;10.506;2022-11-15T02:17:00;20.67;;;14.15;;
32637;SDS011;19045;52.268;10.506;2022-11-15T02:19:47;20.35;;;14.48;;
32637;SDS011;19045;52.268;10.506;2022-11-15T02:22:43;20.90;;;14.10;;
32637;SDS011;19045;52.268;10.506;2022-11-15T02:31:15;20.25;;;13.93;;
32637;SDS011;19045;52.268;10.506;2022-11-15T02:33:50;21.73;;;14.02;;
32637;SDS011;19045;52.268;10.506;2022-11-15T02:36:40;17.92;;;13.55;;
32637;SDS011;19045;52.268;10.506;2022-11-15T02:39:10;19.25;;;13.77;;
32637;SDS011;19045;52.268;10.506;2022-11-15T02:41:48;18.00;;;13.57;;
32637;SDS011;19045;52.268;10.506;2022-11-15T02:44:21;17.08;;;12.68;;
32637;SDS011;19045;52.268;10.506;2022-11-15T02:46:53;23.15;;;14.13;;
32637;SDS011;19045;52.268;10.506;2022-11-15T02:49:39;24.05;;;15.13;;
32637;SDS011;19045;52.268;10.506;2022-11-15T02:52:13;21.35;;;14.10;;
32637;SDS011;19045;52.268;10.506;2022-11-15T02:54:41;19.27;;;13.47;;
32637;SDS011;19045;52.268;10.506;2022-11-15T02:57:10;23.30;;;13.20;;
32637;SDS011;19045;52.268;10.506;2022-11-15T03:00:00;21.15;;;15.05;;
32637;SDS011;19045;52.268;10.506;2022-11-15T03:02:42;24.90;;;12.98;;
32637;SDS011;19045;52.268;10.506;2022-11-15T03:05:20;19.65;;;12.52;;
32637;SDS011;19045;52.268;10.506;2022-11-15T03:07:57;19.38;;;12.57;;
32637;SDS011;19045;52.268;10.506;2022-11-15T03:10:32;23.20;;;13.48;;
32637;SDS011;19045;52.268;10.506;2022-11-15T03:13:09;17.05;;;13.32;;
32637;SDS011;19045;52.268;10.506;2022-11-15T03:15:43;21.40;;;13.10;;
32637;SDS011;19045;52.268;10.506;2022-11-15T03:18:19;18.48;;;12.93;;
32637;SDS011;19045;52.268;10.506;2022-11-15T03:20:51;23.08;;;13.15;;
32637;SDS011;19045;52.268;10.506;2022-11-15T03:23:19;17.48;;;12.75;;
32637;SDS011;19045;52.268;10.506;2022-11-15T03:25:47;19.95;;;13.05;;
32637;SDS011;19045;52.268;10.506;2022-11-15T03:28:17;20.80;;;13.98;;
32637;SDS011;19045;52.268;10.506;2022-11-15T03:30:49;16.70;;;11.63;;
32637;SDS011;19045;52.268;10.506;2022-11-15T03:33:19;19.73;;;11.95;;
32637;SDS011;19045;52.268;10.506;2022-11-15T03:35:48;19.35;;;13.23;;
32637;SDS011;19045;52.268;10.506;2022-11-15T03:38:17;19.05;;;11.98;;
32637;SDS011;19045;52.268;10.506;2022-11-15T03:40:49;21.23;;;12.75;;
32637;SDS011;19045;52.268;10.506;2022-11-15T03:43:23;18.20;;;12.35;;
32637;SDS011;19045;52.268;10.506;2022-11-15T03:45:56;22.42;;;12.93;;
32637;SDS011;19045;52.268;10.506;2022-11-15T03:48:29;19.27;;;11.80;;
32637;SDS011;19045;52.268;10.506;2022-11-15T03:51:00;17.45;;;12.13;;
32637;SDS011;19045;52.268;10.506;2022-11-15T03:53:28;19.08;;;12.00;;
32637;SDS011;19045;52.268;10.506;2022-11-15T03:55:55;15.77;;;11.75;;
32637;SDS011;19045;52.268;10.506;2022-11-15T03:58:22;18.77;;;11.80;;
32637;SDS011;19045;52.268;10.506;2022-11-15T04:00:49;19.45;;;12.55;;
32637;SDS011;19045;52.268;10.506;2022-11-15T04:03:15;17.52;;;11.90;;
32637;SDS011;19045;52.268;10.506;2022-11-15T04:05:43;16.45;;;11.25;;
32637;SDS011;19045;52.268;10.506;2022-11-15T04:08:10;19.80;;;11.00;;
32637;SDS011;19045;52.268;10.506;2022-11-15T04:10:36;18.52;;;12.18;;
32637;SDS011;19045;52.268;10.506;2022-11-15T04:13:03;23.27;;;11.68;;
32637;SDS011;19045;52.268;10.506;2022-11-15T04:15:30;18.83;;;11.77;;
32637;SDS011;19045;52.268;10.506;2022-11-15T04:17:56;21.23;;;11.50;;
32637;SDS011;19045;52.268;10.506;2022-11-15T04:20:24;21.38;;;11.88;;
32637;SDS011;19045;52.268;10.506;2022-11-15T04:23:12;18.60;;;11.63;;
32637;SDS011;19045;52.268;10.506;2022-11-15T04:25:58;17.83;;;11.55;;
32637;SDS011;19045;52.268;10.506;2022-11-15T04:28:27;18.98;;;11.27;;
32637;SDS011;19045;52.268;10.506;2022-11-15T04:30:54;15.32;;;12.23;;
32637;SDS011;19045;52.268;10.506;2022-11-15T04:33:21;16.30;;;12.02;;
32637;SDS011;19045;52.268;10.506;2022-11-15T04:35:48;20.67;;;13.35;;
32637;SDS011;19045;52.268;10.506;2022-11-15T04:38:30;21.17;;;12.95;;
32637;SDS011;19045;52.268;10.506;2022-11-15T04:40:57;17.38;;;12.40;;
32637;SDS011;19045;52.268;10.506;2022-11-15T04:43:23;18.27;;;12.38;;
32637;SDS011;19045;52.268;10.506;2022-11-15T04:45:50;18.48;;;12.05;;
32637;SDS011;19045;52.268;10.506;2022-11-15T04:48:17;17.83;;;12.18;;
32637;SDS011;19045;52.268;10.506;2022-11-15T04:50:43;16.60;;;12.60;;
32637;SDS011;19045;52.268;10.506;2022-11-15T04:53:10;23.38;;;13.70;;
32637;SDS011;19045;52.268;10.506;2022-11-15T04:55:38;19.27;;;12.60;;
32637;SDS011;19045;52.268;10.506;2022-11-15T04:58:04;19.77;;;12.13;;
32637;SDS011;19045;52.268;10.506;2022-11-15T05:00:31;16.58;;;11.52;;
32637;SDS011;19045;52.268;10.506;2022-11-15T05:02:58;20.42;;;12.55;;
32637;SDS011;19045;52.268;10.506;2022-11-15T05:05:42;20.17;;;13.75;;
32637;SDS011;19045;52.268;10.506;2022-11-15T05:08:08;17.02;;;11.50;;
32637;SDS011;19045;52.268;10.506;2022-11-15T05:10:35;18.70;;;13.02;;
32637;SDS011;19045;52.268;10.506;2022-11-15T05:13:03;20.80;;;13.43;;
32637;SDS011;19045;52.268;10.506;2022-11-15T05:15:30;19.77;;;13.05;;
32637;SDS011;19045;52.268;10.506;2022-11-15T05:17:57;22.15;;;13.52;;
32637;SDS011;19045;52.268;10.506;2022-11-15T05:20:25;18.17;;;12.25;;
32637;SDS011;19045;52.268;10.506;2022-11-15T05:22:52;19.63;;;12.88;;
32637;SDS011;19045;52.268;10.506;2022-11-15T05:25:19;22.67;;;13.40;;
32637;SDS011;19045;52.268;10.506;2022-11-15T05:27:45;16.33;;;11.88;;
32637;SDS011;19045;52.268;10.506;2022-11-15T05:30:14;22.50;;;12.05;;
32637;SDS011;19045;52.268;10.506;2022-11-15T05:32:41;21.83;;;12.00;;
32637;SDS011;19045;52.268;10.506;2022-11-15T05:35:08;21.13;;;12.23;;
32637;SDS011;19045;52.268;10.506;2022-11-15T05:37:43;17.60;;;11.35;;
32637;SDS011;19045;52.268;10.506;2022-11-15T05:40:10;20.92;;;12.35;;
32637;SDS011;19045;52.268;10.506;2022-11-15T05:42:37;18.02;;;11.63;;
32637;SDS011;19045;52.268;10.506;2022-11-15T05:45:04;19.35;;;11.90;;
32637;SDS011;19045;52.268;10.506;2022-11-15T05:47:35;20.65;;;12.73;;
32637;SDS011;19045;52.268;10.506;2022-11-15T05:50:05;20.15;;;12.38;;
32637;SDS011;19045;52.268;10.506;2022-11-15T05:52:34;18.95;;;12.10;;
32637;SDS011;19045;52.268;10.506;2022-11-15T05:55:03;19.23;;;12.20;;
32637;SDS011;19045;52.268;10.506;2022-11-15T05:57:32;19.48;;;12.30;;
32637;SDS011;19045;52.268;10.506;2022-11-15T05:59:59;19.70;;;12.88;;
32637;SDS011;19045;52.268;10.506;2022-11-15T06:02:27;19.63;;;12.73;;
32637;SDS011;19045;52.268;10.506;2022-11-15T06:04:55;16.73;;;11.90;;
32637;SDS011;19045;52.268;10.506;2022-11-15T06:07:22;15.77;;;11.77;;
32637;SDS011;19045;52.268;10.506;2022-11-15T06:09:48;19.42;;;12.40;;
32637;SDS011;19045;52.268;10.506;2022-11-15T06:12:15;19.08;;;12.63;;
32637;SDS011;19045;52.268;10.506;2022-11-15T06:14:41;18.05;;;12.02;;
32637;SDS011;19045;52.268;10.506;2022-11-15T06:17:08;20.75;;;12.73;;
32637;SDS011;19045;52.268;10.506;2022-11-15T06:19:35;20.90;;;13.50;;
32637;SDS011;19045;52.268;10.506;2022-11-15T06:22:02;19.90;;;11.95;;
32637;SDS011;19045;52.268;10.506;2022-11-15T06:24:29;21.60;;;12.75;;
32637;SDS011;19045;52.268;10.506;2022-11-15T06:26:56;18.75;;;12.60;;
32637;SDS011;19045;52.268;10.506;2022-11-15T06:29:24;15.30;;;10.77;;
32637;SDS011;19045;52.268;10.506;2022-11-15T06:31:50;23.02;;;13.57;;
32637;SDS011;19045;52.268;10.506;2022-11-15T06:34:17;20.42;;;13.52;;
32637;SDS011;19045;52.268;10.506;2022-11-15T06:36:44;18.52;;;11.73;;
32637;SDS011;19045;52.268;10.506;2022-11-15T06:39:12;20.23;;;12.52;;
32637;SDS011;19045;52.268;10.506;2022-11-15T06:41:38;21.45;;;12.95;;
32637;SDS011;19045;52.268;10.506;2022-11-15T06:44:05;19.00;;;11.52;;
32637;SDS011;19045;52.268;10.506;2022-11-15T06:46:31;22.00;;;13.77;;
32637;SDS011;19045;52.268;10.506;2022-11-15T06:48:58;20.05;;;13.23;;
32637;SDS011;19045;52.268;10.506;2022-11-15T06:51:25;23.75;;;12.07;;
32637;SDS011;19045;52.268;10.506;2022-11-15T06:53:51;21.83;;;12.40;;
32637;SDS011;19045;52.268;10.506;2022-11-15T06:56:19;19.63;;;12.73;;
32637;SDS011;19045;52.268;10.506;2022-11-15T06:58:46;22.20;;;13.85;;
32637;SDS011;19045;52.268;10.506;2022-11-15T07:01:12;20.95;;;13.10;;
32637;SDS011;19045;52.268;10.506;2022-11-15T07:03:40;20.40;;;13.13;;
32637;SDS011;19045;52.268;10.506;2022-11-15T07:06:08;24.15;;;13.25;;
32637;SDS011;19045;52.268;10.506;2022-11-15T07:08:35;21.95;;;13.57;;
32637;SDS011;19045;52.268;10.506;2022-11-15T07:11:06;23.42;;;13.45;;
32637;SDS011;19045;52.268;10.506;2022-11-15T07:13:35;22.52;;;12.82;;
32637;SDS011;19045;52.268;10.506;2022-11-15T07:16:02;22.50;;;12.75;;
32637;SDS011;19045;52.268;10.506;2022-11-15T07:18:33;20.50;;;12.63;;
32637;SDS011;19045;52.268;10.506;2022-11-15T07:21:01;20.83;;;13.00;;
32637;SDS011;19045;52.268;10.506;2022-11-15T07:23:29;19.35;;;12.20;;
32637;SDS011;19045;52.268;10.506;2022-11-15T07:25:56;18.60;;;12.07;;
32637;SDS011;19045;52.268;10.506;2022-11-15T07:28:24;18.80;;;13.20;;
32637;SDS011;19045;52.268;10.506;2022-11-15T07:30:52;18.40;;;11.77;;
32637;SDS011;19045;52.268;10.506;2022-11-15T07:33:18;18.77;;;11.75;;
32637;SDS011;19045;52.268;10.506;2022-11-15T07:35:45;20.90;;;12.07;;
32637;SDS011;19045;52.268;10.506;2022-11-15T07:38:14;18.60;;;11.50;;
32637;SDS011;19045;52.268;10.506;2022-11-15T07:40:44;15.95;;;11.43;;
32637;SDS011;19045;52.268;10.506;2022-11-15T07:43:11;17.77;;;10.35;;
32637;SDS011;19045;52.268;10.506;2022-11-15T07:45:40;20.73;;;11.77;;
32637;SDS011;19045;52.268;10.506;2022-11-15T07:48:09;18.75;;;11.13;;
32637;SDS011;19045;52.268;10.506;2022-11-15T07:50:36;15.23;;;10.15;;
32637;SDS011;19045;52.268;10.506;2022-11-15T07:53:03;16.70;;;10.50;;
32637;SDS011;19045;52.268;10.506;2022-11-15T07:55:29;14.43;;;10.32;;
32637;SDS011;19045;52.268;10.506;2022-11-15T07:57:59;16.08;;;9.73;;
32637;SDS011;19045;52.268;10.506;2022-11-15T08:00:27;18.53;;;10.37;;
32637;SDS011;19045;52.268;10.506;2022-11-15T08:03:00;20.13;;;9.82;;
32637;SDS011;19045;52.268;10.506;2022-11-15T08:05:29;15.05;;;9.50;;
32637;SDS011;19045;52.268;10.506;2022-11-15T08:07:55;11.40;;;7.95;;
32637;SDS011;19045;52.268;10.506;2022-11-15T08:10:22;12.52;;;8.60;;
32637;SDS011;19045;52.268;10.506;2022-11-15T08:12:56;11.32;;;7.75;;
32637;SDS011;19045;52.268;10.506;2022-11-15T08:15:23;10.82;;;7.40;;
32637;SDS011;19045;52.268;10.506;2022-11-15T08:17:52;9.18;;;6.53;;
32637;SDS011;19045;52.268;10.506;2022-11-15T08:20:20;10.20;;;6.82;;
32637;SDS011;19045;52.268;10.506;2022-11-15T08:22:47;8.88;;;5.53;;
32637;SDS011;19045;52.268;10.506;2022-11-15T08:25:14;13.90;;;6.85;;
32637;SDS011;19045;52.268;10.506;2022-11-15T08:27:41;8.32;;;6.10;;
32637;SDS011;19045;52.268;10.506;2022-11-15T08:30:10;7.28;;;4.80;;
32637;SDS011;19045;52.268;10.506;2022-11-15T08:32:37;8.10;;;4.93;;
32637;SDS011;19045;52.268;10.506;2022-11-15T08:35:04;7.28;;;4.93;;
32637;SDS011;19045;52.268;10.506;2022-11-15T08:37:32;9.40;;;6.35;;
32637;SDS011;19045;52.268;10.506;2022-11-15T08:40:00;7.82;;;5.68;;
32637;SDS011;19045;52.268;10.506;2022-11-15T08:42:26;9.15;;;5.80;;
32637;SDS011;19045;52.268;10.506;2022-11-15T08:44:53;10.00;;;6.15;;
32637;SDS011;19045;52.268;10.506;2022-11-15T08:47:19;9.15;;;6.72;;
32637;SDS011;19045;52.268;10.506;2022-11-15T08:49:46;9.75;;;6.65;;
32637;SDS011;19045;52.268;10.506;2022-11-15T08:52:13;10.23;;;6.72;;
32637;SDS011;19045;52.268;10.506;2022-11-15T08:54:40;9.98;;;6.50;;
32637;SDS011;19045;52.268;10.506;2022-11-15T08:57:08;9.10;;;6.45;;
32637;SDS011;19045;52.268;10.506;2022-11-15T08:59:35;12.35;;;7.25;;
32637;SDS011;19045;52.268;10.506;2022-11-15T09:02:02;13.15;;;7.53;;
32637;SDS011;19045;52.268;10.506;2022-11-15T09:04:29;9.90;;;7.43;;
32637;SDS011;19045;52.268;10.506;2022-11-15T09:06:56;13.15;;;7.88;;
32637;SDS011;19045;52.268;10.506;2022-11-15T09:09:22;14.07;;;7.80;;
32637;SDS011;19045;52.268;10.506;2022-11-15T09:11:49;14.70;;;7.43;;
32637;SDS011;19045;52.268;10.506;2022-11-15T09:14:18;11.43;;;7.90;;
32637;SDS011;19045;52.268;10.506;2022-11-15T09:16:44;11.98;;;7.25;;
32637;SDS011;19045;52.268;10.506;2022-11-15T09:19:11;10.90;;;6.80;;
32637;SDS011;19045;52.268;10.506;2022-11-15T09:21:39;11.13;;;6.60;;
32637;SDS011;19045;52.268;10.506;2022-11-15T09:24:06;12.48;;;7.57;;
32637;SDS011;19045;52.268;10.506;2022-11-15T09:26:33;12.50;;;6.90;;
32637;SDS011;19045;52.268;10.506;2022-11-15T09:29:00;15.02;;;7.75;;
32637;SDS011;19045;52.268;10.506;2022-11-15T09:31:28;13.25;;;7.43;;
32637;SDS011;19045;52.268;10.506;2022-11-15T09:33:55;10.02;;;6.28;;
32637;SDS011;19045;52.268;10.506;2022-11-15T09:36:22;10.65;;;6.70;;
32637;SDS011;19045;52.268;10.506;2022-11-15T09:38:48;11.32;;;5.93;;
32637;SDS011;19045;52.268;10.506;2022-11-15T09:41:25;11.13;;;5.05;;
32637;SDS011;19045;52.268;10.506;2022-11-15T09:44:07;12.07;;;5.05;;
32637;SDS011;19045;52.268;10.506;2022-11-15T09:46:50;8.95;;;4.57;;
32637;SDS011;19045;52.268;10.506;2022-11-15T09:49:24;7.15;;;3.95;;
32637;SDS011;19045;52.268;10.506;2022-11-15T09:51:52;7.78;;;4.45;;
32637;SDS011;19045;52.268;10.506;2022-11-15T09:54:26;12.48;;;3.85;;
32637;SDS011;19045;52.268;10.506;2022-11-15T09:56:56;5.15;;;3.33;;
32637;SDS011;19045;52.268;10.506;2022-11-15T10:02:33;5.22;;;3.22;;
32637;SDS011;19045;52.268;10.506;2022-11-15T10:05:10;3.55;;;2.72;;
32637;SDS011;19045;52.268;10.506;2022-11-15T10:07:42;9.27;;;3.40;;
32637;SDS011;19045;52.268;10.506;2022-11-15T10:10:18;5.82;;;2.80;;
32637;SDS011;19045;52.268;10.506;2022-11-15T10:12:51;6.07;;;3.28;;
32637;SDS011;19045;52.268;10.506;2022-11-15T10:15:19;5.00;;;2.92;;
32637;SDS011;19045;52.268;10.506;2022-11-15T10:20:39;5.57;;;2.97;;
32637;SDS011;19045;52.268;10.506;2022-11-15T10:23:13;6.32;;;2.92;;
32637;SDS011;19045;52.268;10.506;2022-11-15T10:25:41;4.57;;;3.13;;
32637;SDS011;19045;52.268;10.506;2022-11-15T10:28:09;6.38;;;3.00;;
32637;SDS011;19045;52.268;10.506;2022-11-15T10:30:41;6.13;;;3.13;;
32637;SDS011;19045;52.268;10.506;2022-11-15T10:33:13;7.18;;;3.25;;
32637;SDS011;19045;52.268;10.506;2022-11-15T10:35:48;5.85;;;3.20;;
32637;SDS011;19045;52.268;10.506;2022-11-15T10:38:14;4.70;;;2.53;;
32637;SDS011;19045;52.268;10.506;2022-11-15T10:40:41;5.07;;;3.00;;
32637;SDS011;19045;52.268;10.506;2022-11-15T10:43:14;4.93;;;3.17;;
32637;SDS011;19045;52.268;10.506;2022-11-15T10:45:42;7.82;;;3.35;;
32637;SDS011;19045;52.268;10.506;2022-11-15T10:48:24;4.63;;;2.75;;
32637;SDS011;19045;52.268;10.506;2022-11-15T10:50:51;5.55;;;2.90;;
32637;SDS011;19045;52.268;10.506;2022-11-15T10:53:21;5.63;;;2.40;;
32637;SDS011;19045;52.268;10.506;2022-11-15T10:55:56;5.32;;;2.30;;
32637;SDS011;19045;52.268;10.506;2022-11-15T10:58:31;3.20;;;2.25;;
32637;SDS011;19045;52.268;10.506;2022-11-15T11:03:59;6.18;;;2.53;;
32637;SDS011;19045;52.268;10.506;2022-11-15T11:06:27;5.68;;;2.40;;
32637;SDS011;19045;52.268;10.506;2022-11-15T11:08:55;3.10;;;2.33;;
32637;SDS011;19045;52.268;10.506;2022-11-15T11:11:23;4.35;;;2.25;;
32637;SDS011;19045;52.268;10.506;2022-11-15T11:13:50;4.22;;;2.03;;
32637;SDS011;19045;52.268;10.506;2022-11-15T11:16:30;4.82;;;2.38;;
32637;SDS011;19045;52.268;10.506;2022-11-15T11:19:23;3.58;;;2.20;;
32637;SDS011;19045;52.268;10.506;2022-11-15T11:22:05;5.40;;;3.20;;
32637;SDS011;19045;52.268;10.506;2022-11-15T11:25:03;7.25;;;3.47;;
32637;SDS011;19045;52.268;10.506;2022-11-15T11:27:40;6.38;;;3.05;;
32637;SDS011;19045;52.268;10.506;2022-11-15T11:30:18;9.10;;;3.57;;
32637;SDS011;19045;52.268;10.506;2022-11-15T11:33:03;11.90;;;4.18;;
32637;SDS011;19045;52.268;10.506;2022-11-15T11:35:41;6.47;;;4.20;;
32637;SDS011;19045;52.268;10.506;2022-11-15T11:38:19;7.00;;;4.20;;
32637;SDS011;19045;52.268;10.506;2022-11-15T11:41:00;7.10;;;4.70;;
32637;SDS011;19045;52.268;10.506;2022-11-15T11:43:36;8.55;;;4.40;;
32637;SDS011;19045;52.268;10.506;2022-11-15T11:46:17;8.15;;;4.68;;
32637;SDS011;19045;52.268;10.506;2022-11-15T11:48:55;6.53;;;3.90;;
32637;SDS011;19045;52.268;10.506;2022-11-15T11:51:31;11.57;;;4.45;;
32637;SDS011;19045;52.268;10.506;2022-11-15T11:54:03;7.97;;;4.65;;
32637;SDS011;19045;52.268;10.506;2022-11-15T11:56:36;10.30;;;5.03;;
32637;SDS011;19045;52.268;10.506;2022-11-15T11:59:07;8.25;;;4.70;;
32637;SDS011;19045;52.268;10.506;2022-11-15T12:01:42;9.15;;;5.10;;
32637;SDS011;19045;52.268;10.506;2022-11-15T12:04:11;7.97;;;4.93;;
32637;SDS011;19045;52.268;10.506;2022-11-15T12:06:46;7.78;;;4.20;;
32637;SDS011;19045;52.268;10.506;2022-11-15T12:09:17;9.23;;;4.50;;
32637;SDS011;19045;52.268;10.506;2022-11-15T12:11:51;16.88;;;5.00;;
32637;SDS011;19045;52.268;10.506;2022-11-15T12:14:25;5.18;;;3.40;;
32637;SDS011;19045;52.268;10.506;2022-11-15T12:16:57;9.07;;;4.45;;
32637;SDS011;19045;52.268;10.506;2022-11-15T12:19:24;8.50;;;4.50;;
32637;SDS011;19045;52.268;10.506;2022-11-15T12:21:54;8.73;;;4.75;;
32637;SDS011;19045;52.268;10.506;2022-11-15T12:24:28;6.65;;;3.97;;
32637;SDS011;19045;52.268;10.506;2022-11-15T12:27:01;5.63;;;3.60;;
32637;SDS011;19045;52.268;10.506;2022-11-15T12:29:35;4.03;;;3.25;;
32637;SDS011;19045;52.268;10.506;2022-11-15T12:32:03;7.25;;;3.90;;
32637;SDS011;19045;52.268;10.506;2022-11-15T12:34:37;6.68;;;3.60;;
32637;SDS011;19045;52.268;10.506;2022-11-15T12:40:23;7.30;;;4.03;;
32637;SDS011;19045;52.268;10.506;2022-11-15T12:42:58;5.72;;;3.63;;
32637;SDS011;19045;52.268;10.506;2022-11-15T12:45:28;8.20;;;3.97;;
32637;SDS011;19045;52.268;10.506;2022-11-15T12:47:56;8.93;;;3.78;;
32637;SDS011;19045;52.268;10.506;2022-11-15T12:50:53;7.82;;;4.50;;
32637;SDS011;19045;52.268;10.506;2022-11-15T12:53:26;6.32;;;4.20;;
32637;SDS011;19045;52.268;10.506;2022-11-15T12:59:00;6.93;;;4.15;;
32637;SDS011;19045;52.268;10.506;2022-11-15T13:04:27;7.57;;;4.05;;
32637;SDS011;19045;52.268;10.506;2022-11-15T13:06:56;6.65;;;3.90;;
32637;SDS011;19045;52.268;10.506;2022-11-15T13:18:26;9.80;;;4.90;;
32637;SDS011;19045;52.268;10.506;2022-11-15T13:20:56;9.20;;;5.00;;
32637;SDS011;19045;52.268;10.506;2022-11-15T13:23:23;7.97;;;4.85;;
32637;SDS011;19045;52.268;10.506;2022-11-15T13:28:42;9.93;;;5.10;;
32637;SDS011;19045;52.268;10.506;2022-11-15T13:31:18;8.68;;;4.97;;
32637;SDS011;19045;52.268;10.506;2022-11-15T13:33:50;8.80;;;4.97;;
32637;SDS011;19045;52.268;10.506;2022-11-15T13:36:19;9.93;;;5.20;;
32637;SDS011;19045;52.268;10.506;2022-11-15T13:38:59;10.30;;;6.10;;
32637;SDS011;19045;52.268;10.506;2022-11-15T13:41:28;11.70;;;5.85;;
32637;SDS011;19045;52.268;10.506;2022-11-15T13:43:57;10.32;;;5.60;;
32637;SDS011;19045;52.268;10.506;2022-11-15T13:46:27;10.27;;;5.63;;
32637;SDS011;19045;52.268;10.506;2022-11-15T13:48:57;13.50;;;5.07;;
32637;SDS011;19045;52.268;10.506;2022-11-15T13:51:33;10.98;;;5.55;;
32637;SDS011;19045;52.268;10.506;2022-11-15T13:54:06;8.45;;;5.40;;
32637;SDS011;19045;52.268;10.506;2022-11-15T13:56:40;10.88;;;6.07;;
32637;SDS011;19045;52.268;10.506;2022-11-15T13:59:10;12.90;;;6.72;;
32637;SDS011;19045;52.268;10.506;2022-11-15T14:01:45;9.98;;;5.65;;
32637;SDS011;19045;52.268;10.506;2022-11-15T14:04:12;9.30;;;5.18;;
32637;SDS011;19045;52.268;10.506;2022-11-15T14:06:44;7.75;;;5.00;;
32637;SDS011;19045;52.268;10.506;2022-11-15T14:09:24;14.18;;;5.45;;
32637;SDS011;19045;52.268;10.506;2022-11-15T14:11:59;9.88;;;5.50;;
32637;SDS011;19045;52.268;10.506;2022-11-15T14:14:28;11.38;;;5.07;;
32637;SDS011;19045;52.268;10.506;2022-11-15T14:16:58;10.48;;;5.20;;
32637;SDS011;19045;52.268;10.506;2022-11-15T14:19:36;6.70;;;4.90;;
32637;SDS011;19045;52.268;10.506;2022-11-15T14:22:08;13.18;;;5.45;;
32637;SDS011;19045;52.268;10.506;2022-11-15T14:24:37;6.32;;;4.95;;
32637;SDS011;19045;52.268;10.506;2022-11-15T14:27:21;11.05;;;6.63;;
32637;SDS011;19045;52.268;10.506;2022-11-15T14:29:50;15.85;;;6.00;;
32637;SDS011;19045;52.268;10.506;2022-11-15T14:32:19;11.00;;;6.10;;
32637;SDS011;19045;52.268;10.506;2022-11-15T14:34:47;11.02;;;5.45;;
32637;SDS011;19045;52.268;10.506;2022-11-15T14:37:20;9.48;;;5.47;;
32637;SDS011;19045;52.268;10.506;2022-11-15T14:39:48;12.07;;;5.80;;
32637;SDS011;19045;52.268;10.506;2022-11-15T14:42:16;12.15;;;5.53;;
32637;SDS011;19045;52.268;10.506;2022-11-15T14:44:43;10.40;;;5.45;;
32637;SDS011;19045;52.268;10.506;2022-11-15T14:47:10;14.98;;;5.68;;
32637;SDS011;19045;52.268;10.506;2022-11-15T14:49:38;10.70;;;5.53;;
32637;SDS011;19045;52.268;10.506;2022-11-15T14:52:07;13.32;;;5.90;;
32637;SDS011;19045;52.268;10.506;2022-11-15T14:54:52;10.18;;;5.47;;
32637;SDS011;19045;52.268;10.506;2022-11-15T14:57:19;9.93;;;5.90;;
32637;SDS011;19045;52.268;10.506;2022-11-15T14:59:46;12.73;;;5.72;;
32637;SDS011;19045;52.268;10.506;2022-11-15T15:02:15;11.48;;;5.90;;
32637;SDS011;19045;52.268;10.506;2022-11-15T15:04:45;9.02;;;5.45;;
32637;SDS011;19045;52.268;10.506;2022-11-15T15:07:12;11.63;;;6.45;;
32637;SDS011;19045;52.268;10.506;2022-11-15T15:09:39;10.98;;;7.20;;
32637;SDS011;19045;52.268;10.506;2022-11-15T15:12:09;12.45;;;7.65;;
32637;SDS011;19045;52.268;10.506;2022-11-15T15:14:43;12.27;;;7.45;;